createdAt,value
2022-08-07T00:00:15.269Z,91.10
2022-08-07T00:02:46.121Z,92.10
2022-08-07T00:05:13.719Z,91.00
2022-08-07T00:07:41.736Z,91.50
2022-08-07T00:10:26.265Z,99.90
2022-08-07T00:13:00.503Z,91.50
2022-08-07T00:15:38.395Z,91.80
2022-08-07T00:18:24.500Z,91.80
2022-08-07T00:21:01.811Z,92.30
2022-08-07T00:23:32.378Z,92.20
2022-08-07T00:26:13.056Z,92.10
2022-08-07T00:28:55.712Z,92.40
2022-08-07T00:31:26.130Z,92.30
2022-08-07T00:34:08.827Z,92.10
2022-08-07T00:36:38.571Z,92.20
2022-08-07T00:39:12.754Z,92.40
2022-08-07T00:41:53.771Z,92.60
2022-08-07T00:44:41.287Z,92.90
2022-08-07T00:47:16.150Z,92.00
2022-08-07T00:50:19.186Z,92.50
2022-08-07T00:52:47.514Z,92.80
2022-08-07T00:55:17.515Z,99.90
2022-08-07T00:57:56.032Z,93.00
2022-08-07T01:00:24.169Z,93.00
2022-08-07T01:02:52.495Z,93.00
2022-08-07T01:05:24.542Z,93.10
2022-08-07T01:07:52.533Z,93.20
2022-08-07T01:10:22.915Z,93.50
2022-08-07T01:12:53.772Z,93.50
2022-08-07T01:16:01.180Z,93.70
2022-08-07T01:18:17.183Z,93.90
2022-08-07T01:20:57.397Z,95.30
2022-08-07T01:23:34.671Z,94.20
2022-08-07T01:26:07.864Z,94.20
2022-08-07T01:28:46.329Z,94.20
2022-08-07T01:31:20.748Z,94.40
2022-08-07T01:33:57.455Z,94.50
2022-08-07T01:36:33.892Z,94.60
2022-08-07T01:39:10.171Z,94.90
2022-08-07T01:42:01.549Z,95.00
2022-08-07T01:44:32.389Z,95.10
2022-08-07T01:47:01.171Z,95.40
2022-08-07T01:49:44.338Z,95.50
2022-08-07T01:52:13.409Z,95.50
2022-08-07T01:54:44.953Z,95.40
2022-08-07T01:57:24.789Z,95.50
2022-08-07T02:00:12.808Z,95.80
2022-08-07T02:03:18.795Z,95.90
2022-08-07T02:05:59.655Z,96.00
2022-08-07T02:08:33.577Z,96.30
2022-08-07T02:11:04.607Z,96.20
2022-08-07T02:13:56.456Z,96.40
2022-08-07T02:16:28.343Z,96.90
2022-08-07T02:20:04.819Z,96.70
2022-08-07T02:21:58.773Z,96.90
2022-08-07T02:24:29.322Z,96.90
2022-08-07T02:27:01.177Z,97.30
2022-08-07T02:29:31.583Z,97.30
2022-08-07T02:32:01.426Z,97.50
2022-08-07T02:34:30.219Z,97.60
2022-08-07T02:37:05.938Z,97.60
2022-08-07T02:40:02.359Z,97.50
2022-08-07T02:42:33.031Z,97.00
2022-08-07T02:45:07.328Z,97.20
2022-08-07T02:47:52.940Z,97.20
2022-08-07T02:50:21.162Z,97.20
2022-08-07T02:53:19.064Z,99.90
2022-08-07T02:56:03.235Z,97.50
2022-08-07T02:58:35.606Z,97.00
2022-08-07T03:01:05.819Z,97.00
2022-08-07T03:03:50.509Z,96.90
2022-08-07T03:06:34.674Z,97.20
2022-08-07T03:09:07.444Z,97.20
2022-08-07T03:11:52.151Z,97.20
2022-08-07T03:14:28.139Z,97.30
2022-08-07T03:16:57.128Z,97.50
2022-08-07T03:19:28.991Z,97.70
2022-08-07T03:21:58.783Z,97.80
2022-08-07T03:24:28.165Z,97.90
2022-08-07T03:27:02.967Z,98.00
2022-08-07T03:29:49.568Z,98.20
2022-08-07T03:32:31.313Z,97.80
2022-08-07T03:35:16.938Z,98.30
2022-08-07T03:37:54.080Z,98.20
2022-08-07T03:40:30.939Z,98.40
2022-08-07T03:43:13.545Z,98.40
2022-08-07T03:45:47.924Z,98.30
2022-08-07T03:48:19.026Z,98.50
2022-08-07T03:50:56.094Z,98.80
2022-08-07T03:53:50.205Z,98.90
2022-08-07T03:56:33.299Z,99.00
2022-08-07T03:59:09.935Z,99.20
2022-08-07T04:01:45.861Z,99.40
2022-08-07T04:04:17.874Z,99.50
2022-08-07T04:06:50.872Z,99.90
2022-08-07T04:09:23.408Z,99.50
2022-08-07T04:12:21.355Z,99.60
2022-08-07T04:14:46.217Z,99.50
2022-08-07T04:17:21.066Z,99.50
2022-08-07T04:19:54.914Z,99.80
2022-08-07T04:22:29.109Z,99.70
2022-08-07T04:25:01.937Z,99.90
2022-08-07T04:27:36.284Z,99.90
2022-08-07T04:30:35.768Z,99.90
2022-08-07T04:33:15.413Z,99.90
2022-08-07T04:35:50.990Z,99.90
2022-08-07T04:38:22.830Z,99.90
2022-08-07T04:40:51.714Z,99.90
2022-08-07T04:44:09.675Z,99.90
2022-08-07T04:47:07.874Z,99.90
2022-08-07T04:50:05.080Z,99.90
2022-08-07T04:53:07.210Z,99.90
2022-08-07T04:58:16.266Z,99.90
2022-08-07T04:59:18.325Z,99.90
2022-08-07T05:02:16.799Z,99.80
2022-08-07T05:05:54.210Z,99.90
2022-08-07T05:08:59.570Z,99.90
2022-08-07T05:11:57.262Z,99.90
2022-08-07T05:14:56.442Z,99.90
2022-08-07T05:17:17.496Z,99.90
2022-08-07T05:20:09.458Z,99.90
2022-08-07T05:22:40.034Z,99.90
2022-08-07T05:25:11.841Z,99.90
2022-08-07T05:28:03.575Z,99.90
2022-08-07T05:30:47.214Z,99.90
2022-08-07T05:33:17.968Z,99.90
2022-08-07T05:35:51.763Z,99.90
2022-08-07T05:39:00.263Z,99.90
2022-08-07T05:41:14.393Z,99.90
2022-08-07T05:44:07.931Z,99.90
2022-08-07T05:46:38.212Z,99.90
2022-08-07T05:49:11.702Z,99.90
2022-08-07T05:51:46.522Z,99.90
2022-08-07T05:54:30.796Z,99.90
2022-08-07T05:57:06.783Z,99.90
2022-08-07T05:59:47.232Z,99.90
2022-08-07T06:02:29.697Z,99.90
2022-08-07T06:05:05.049Z,99.90
2022-08-07T06:08:14.885Z,99.90
2022-08-07T06:10:23.905Z,99.60
2022-08-07T06:12:51.919Z,99.50
2022-08-07T06:15:20.422Z,99.30
2022-08-07T06:17:53.364Z,99.40
2022-08-07T06:20:25.569Z,99.20
2022-08-07T06:23:46.890Z,99.10
2022-08-07T06:26:00.857Z,99.00
2022-08-07T06:28:30.582Z,99.00
2022-08-07T06:30:58.982Z,98.90
2022-08-07T06:33:29.513Z,98.70
2022-08-07T06:36:11.884Z,98.80
2022-08-07T06:38:59.054Z,98.60
2022-08-07T06:42:02.081Z,98.50
2022-08-07T06:44:58.268Z,98.40
2022-08-07T06:47:27.010Z,98.40
2022-08-07T06:49:58.486Z,98.20
2022-08-07T06:52:36.777Z,98.10
2022-08-07T06:55:34.051Z,98.00
2022-08-07T06:58:10.246Z,98.20
2022-08-07T07:00:46.657Z,97.80
2022-08-07T07:03:39.582Z,97.80
2022-08-07T07:06:10.996Z,97.60
2022-08-07T07:08:39.881Z,97.50
2022-08-07T07:12:08.161Z,97.40
2022-08-07T07:14:03.981Z,97.40
2022-08-07T07:16:49.981Z,97.60
2022-08-07T07:19:55.286Z,97.30
2022-08-07T07:22:36.193Z,97.20
2022-08-07T07:26:33.329Z,97.10
2022-08-07T07:28:07.736Z,97.00
2022-08-07T07:31:21.574Z,97.00
2022-08-07T07:33:57.143Z,96.80
2022-08-07T07:36:32.564Z,96.90
2022-08-07T07:39:05.159Z,96.90
2022-08-07T07:41:50.736Z,96.90
2022-08-07T07:44:26.043Z,96.70
2022-08-07T07:47:04.361Z,96.70
2022-08-07T07:50:33.020Z,96.70
2022-08-07T07:52:32.278Z,96.60
2022-08-07T07:55:00.699Z,99.90
2022-08-07T07:57:50.296Z,96.80
2022-08-07T08:00:29.028Z,96.60
2022-08-07T08:03:06.215Z,96.30
2022-08-07T08:05:54.311Z,96.30
2022-08-07T08:08:35.636Z,96.30
2022-08-07T08:11:13.668Z,96.50
2022-08-07T08:13:54.402Z,99.90
2022-08-07T08:16:52.460Z,95.80
2022-08-07T08:20:17.829Z,95.90
2022-08-07T08:22:33.297Z,95.80
2022-08-07T08:25:26.884Z,96.00
2022-08-07T08:28:16.859Z,95.80
2022-08-07T08:30:58.171Z,99.90
2022-08-07T08:33:34.199Z,95.30
2022-08-07T08:36:03.955Z,95.60
2022-08-07T08:38:41.052Z,95.40
2022-08-07T08:41:15.630Z,95.50
2022-08-07T08:43:58.822Z,99.90
2022-08-07T08:46:38.759Z,95.60
2022-08-07T08:49:46.361Z,95.30
2022-08-07T08:52:32.229Z,94.80
2022-08-07T08:55:12.186Z,95.20
2022-08-07T08:58:28.301Z,94.90
2022-08-07T09:01:15.163Z,95.10
2022-08-07T09:04:03.896Z,94.70
2022-08-07T09:06:49.757Z,94.50
2022-08-07T09:09:43.600Z,94.10
2022-08-07T09:13:06.902Z,94.10
2022-08-07T09:16:23.002Z,93.70
2022-08-07T09:19:03.410Z,93.80
2022-08-07T09:22:10.320Z,93.10
2022-08-07T09:25:00.450Z,93.40
2022-08-07T09:28:01.294Z,93.30
2022-08-07T09:30:54.906Z,93.10
2022-08-07T09:33:52.456Z,93.40
2022-08-07T09:36:43.132Z,93.10
2022-08-07T09:39:54.190Z,92.80
2022-08-07T09:42:39.466Z,92.40
2022-08-07T09:47:24.643Z,92.50
2022-08-07T09:48:55.903Z,92.10
2022-08-07T09:52:10.080Z,91.20
2022-08-07T09:54:47.940Z,91.30
2022-08-07T09:57:46.776Z,90.90
2022-08-07T10:00:16.692Z,91.40
2022-08-07T10:04:07.015Z,91.60
2022-08-07T10:06:35.713Z,91.00
2022-08-07T10:09:23.829Z,90.60
2022-08-07T10:12:39.603Z,90.00
2022-08-07T10:15:44.515Z,90.00
2022-08-07T10:18:44.518Z,88.80
2022-08-07T10:22:12.157Z,89.80
2022-08-07T10:24:45.966Z,90.10
2022-08-07T10:27:18.075Z,90.00
2022-08-07T10:30:06.554Z,89.60
2022-08-07T10:33:13.120Z,85.80
2022-08-07T10:36:29.304Z,85.90
2022-08-07T10:39:16.619Z,87.30
2022-08-07T10:42:01.671Z,87.30
2022-08-07T10:45:44.089Z,87.00
2022-08-07T10:48:20.404Z,85.30
2022-08-07T10:50:54.295Z,83.20
2022-08-07T10:53:44.101Z,84.40
2022-08-07T10:56:20.998Z,83.80
2022-08-07T10:59:21.685Z,85.30
2022-08-07T11:02:33.563Z,83.70
2022-08-07T11:05:19.585Z,85.10
2022-08-07T11:08:08.780Z,84.20
2022-08-07T11:11:00.061Z,83.50
2022-08-07T11:14:44.914Z,82.50
2022-08-07T11:16:55.755Z,82.20
2022-08-07T11:19:31.150Z,81.10
2022-08-07T11:22:11.148Z,83.00
2022-08-07T11:25:09.193Z,82.90
2022-08-07T11:28:01.292Z,81.40
2022-08-07T11:30:42.677Z,79.80
2022-08-07T11:33:53.961Z,78.70
2022-08-07T11:36:49.661Z,78.50
2022-08-07T11:40:00.504Z,77.90
2022-08-07T11:42:51.054Z,78.80
2022-08-07T11:45:49.890Z,79.30
2022-08-07T11:48:35.756Z,79.70
2022-08-07T11:51:40.919Z,78.80
2022-08-07T11:54:26.657Z,77.90
2022-08-07T11:57:14.314Z,77.90
2022-08-07T12:00:11.440Z,77.00
2022-08-07T12:02:52.574Z,78.00
2022-08-07T12:05:41.699Z,78.60
2022-08-07T12:08:38.030Z,77.50
2022-08-07T12:11:22.518Z,76.60
2022-08-07T12:14:25.252Z,96.00
2022-08-07T12:17:00.570Z,76.80
2022-08-07T12:20:03.279Z,76.60
2022-08-07T12:22:59.138Z,76.70
2022-08-07T12:26:05.722Z,76.60
2022-08-07T12:28:58.891Z,77.00
2022-08-07T12:32:02.220Z,76.30
2022-08-07T12:34:35.927Z,75.50
2022-08-07T12:37:11.142Z,76.20
2022-08-07T12:39:50.720Z,75.90
2022-08-07T12:42:27.324Z,76.20
2022-08-07T12:44:59.035Z,75.80
2022-08-07T12:47:40.618Z,76.10
2022-08-07T12:50:33.951Z,76.40
2022-08-07T12:54:37.452Z,75.80
2022-08-07T12:56:34.633Z,75.10
2022-08-07T12:59:08.449Z,73.30
2022-08-07T13:01:54.641Z,73.70
2022-08-07T13:05:01.369Z,73.70
2022-08-07T13:08:12.081Z,74.20
2022-08-07T13:10:52.619Z,74.00
2022-08-07T13:13:46.703Z,74.20
2022-08-07T13:16:40.514Z,74.20
2022-08-07T13:19:45.700Z,94.80
2022-08-07T13:22:28.384Z,73.90
2022-08-07T13:24:59.166Z,94.90
2022-08-07T13:28:11.077Z,74.30
2022-08-07T13:30:41.139Z,73.80
2022-08-07T13:34:31.693Z,74.00
2022-08-07T13:36:51.427Z,73.80
2022-08-07T13:40:32.832Z,73.30
2022-08-07T13:42:35.226Z,72.90
2022-08-07T13:45:20.682Z,72.90
2022-08-07T13:48:06.221Z,71.20
2022-08-07T13:50:45.073Z,71.80
2022-08-07T13:53:59.364Z,71.30
2022-08-07T13:56:35.849Z,69.60
2022-08-07T13:59:20.387Z,69.40
2022-08-07T14:02:08.403Z,67.80
2022-08-07T14:05:07.531Z,65.40
2022-08-07T14:07:59.683Z,66.00
2022-08-07T14:10:42.484Z,67.30
2022-08-07T14:13:16.634Z,67.20
2022-08-07T14:15:57.053Z,67.50
2022-08-07T14:18:33.210Z,65.70
2022-08-07T14:22:00.604Z,65.90
2022-08-07T14:24:08.933Z,64.20
2022-08-07T14:26:50.690Z,64.80
2022-08-07T14:30:06.135Z,63.60
2022-08-07T14:32:19.269Z,63.80
2022-08-07T14:34:49.105Z,65.00
2022-08-07T14:37:38.760Z,63.30
2022-08-07T14:40:25.985Z,63.60
2022-08-07T14:43:55.476Z,63.20
2022-08-07T14:45:51.903Z,63.60
2022-08-07T14:48:28.676Z,64.50
2022-08-07T14:54:09.548Z,62.80
2022-08-07T14:56:43.481Z,63.50
2022-08-07T15:02:34.360Z,61.80
2022-08-07T15:05:01.480Z,59.80
2022-08-07T15:07:51.299Z,62.60
2022-08-07T15:10:26.156Z,61.80
2022-08-07T15:12:59.633Z,60.90
2022-08-07T15:15:38.542Z,61.00
2022-08-07T15:21:44.215Z,61.20
2022-08-07T15:27:15.299Z,61.90
2022-08-07T15:30:09.461Z,61.50
2022-08-07T15:32:51.080Z,62.30
2022-08-07T15:42:42.153Z,61.80
2022-08-07T15:44:09.539Z,61.20
2022-08-07T15:52:30.812Z,60.80
2022-08-07T15:55:04.158Z,59.40
2022-08-07T15:57:48.123Z,59.60
2022-08-07T16:00:31.079Z,60.30
2022-08-07T16:03:02.956Z,60.50
2022-08-07T16:05:32.341Z,60.70
2022-08-07T16:08:31.647Z,60.90
2022-08-07T16:11:26.504Z,60.50
2022-08-07T16:14:05.309Z,86.00
2022-08-07T16:16:48.583Z,60.80
2022-08-07T16:19:42.605Z,60.10
2022-08-07T16:22:55.549Z,60.20
2022-08-07T16:25:54.631Z,59.00
2022-08-07T16:30:09.135Z,59.80
2022-08-07T16:31:51.312Z,58.90
2022-08-07T16:34:31.231Z,58.80
2022-08-07T16:37:02.830Z,58.30
2022-08-07T16:39:57.889Z,58.10
2022-08-07T16:42:45.166Z,57.30
2022-08-07T16:46:40.936Z,58.00
2022-08-07T16:48:58.384Z,58.60
2022-08-07T16:51:57.527Z,58.80
2022-08-07T16:54:36.726Z,59.50
2022-08-07T16:58:02.390Z,59.30
2022-08-07T17:00:29.488Z,59.70
2022-08-07T17:03:05.850Z,60.10
2022-08-07T17:06:29.383Z,60.40
2022-08-07T17:09:10.530Z,60.30
2022-08-07T17:12:35.875Z,59.80
2022-08-07T17:15:05.226Z,60.20
2022-08-07T17:17:45.955Z,59.70
2022-08-07T17:20:37.710Z,60.00
2022-08-07T17:23:14.685Z,59.70
2022-08-07T17:25:51.832Z,59.60
2022-08-07T17:28:38.227Z,58.20
2022-08-07T17:31:17.205Z,58.40
2022-08-07T17:34:32.592Z,58.50
2022-08-07T17:36:58.065Z,58.10
2022-08-07T17:40:03.086Z,57.80
2022-08-07T17:43:01.003Z,56.40
2022-08-07T17:45:43.715Z,56.60
2022-08-07T17:48:33.422Z,56.60
2022-08-07T17:51:59.733Z,55.60
2022-08-07T17:54:29.571Z,55.70
2022-08-07T17:57:18.580Z,56.10
2022-08-07T17:59:56.241Z,56.60
2022-08-07T18:02:36.365Z,56.70
2022-08-07T18:05:20.650Z,56.90
2022-08-07T18:08:15.483Z,56.80
2022-08-07T18:12:06.490Z,56.50
2022-08-07T18:14:24.145Z,56.20
2022-08-07T18:16:58.995Z,55.90
2022-08-07T18:21:04.030Z,56.00
2022-08-07T18:22:36.182Z,54.50
2022-08-07T18:25:23.869Z,55.70
2022-08-07T18:28:15.412Z,55.80
2022-08-07T18:31:25.118Z,56.00
2022-08-07T18:35:00.808Z,77.90
2022-08-07T18:38:58.897Z,55.20
2022-08-07T18:40:56.162Z,54.70
2022-08-07T18:43:42.855Z,54.80
2022-08-07T18:46:33.589Z,55.10
2022-08-07T18:50:31.361Z,55.20
2022-08-07T18:52:53.650Z,55.10
2022-08-07T18:55:55.908Z,55.20
2022-08-07T18:58:51.770Z,55.20
2022-08-07T19:02:18.121Z,55.00
2022-08-07T19:04:39.718Z,55.40
2022-08-07T19:07:35.143Z,55.50
2022-08-07T19:10:21.912Z,56.00
2022-08-07T19:13:12.063Z,56.20
2022-08-07T19:16:05.959Z,56.60
2022-08-07T19:19:00.151Z,57.00
2022-08-07T19:21:47.622Z,57.50
2022-08-07T19:24:30.073Z,57.80
2022-08-07T19:28:58.139Z,58.60
2022-08-07T19:31:04.152Z,58.80
2022-08-07T19:32:45.281Z,59.30
2022-08-07T19:35:22.549Z,60.30
2022-08-07T19:37:59.567Z,60.90
2022-08-07T19:40:34.697Z,61.70
2022-08-07T19:43:43.146Z,61.70
2022-08-07T19:46:09.351Z,62.80
2022-08-07T19:48:43.620Z,62.90
2022-08-07T19:51:20.068Z,63.40
2022-08-07T19:54:30.987Z,63.90
2022-08-07T19:57:52.140Z,64.30
2022-08-07T19:59:41.706Z,64.80
2022-08-07T20:02:19.790Z,65.40
2022-08-07T20:04:58.002Z,66.10
2022-08-07T20:07:46.662Z,66.10
2022-08-07T20:10:36.757Z,66.50
2022-08-07T20:13:27.169Z,66.60
2022-08-07T20:16:02.376Z,67.20
2022-08-07T20:18:32.709Z,67.10
2022-08-07T20:21:21.005Z,67.30
2022-08-07T20:24:00.890Z,67.90
2022-08-07T20:26:38.507Z,67.90
2022-08-07T20:29:47.210Z,68.40
2022-08-07T20:32:11.589Z,68.60
2022-08-07T20:34:52.705Z,68.90
2022-08-07T20:37:29.558Z,69.10
2022-08-07T20:40:02.560Z,69.60
2022-08-07T20:42:34.490Z,69.50
2022-08-07T20:45:33.721Z,69.60
2022-08-07T20:47:58.229Z,69.90
2022-08-07T20:50:29.091Z,70.20
2022-08-07T20:52:59.689Z,70.50
2022-08-07T20:55:28.658Z,70.40
2022-08-07T20:58:04.085Z,70.60
2022-08-07T21:00:47.081Z,70.90
2022-08-07T21:03:23.325Z,71.60
2022-08-07T21:06:00.831Z,71.80
2022-08-07T21:08:39.346Z,72.00
2022-08-07T21:11:14.333Z,72.40
2022-08-07T21:14:16.127Z,94.90
2022-08-07T21:17:06.405Z,73.60
2022-08-07T21:19:51.305Z,74.10
2022-08-07T21:22:28.344Z,74.10
2022-08-07T21:25:13.551Z,74.40
2022-08-07T21:28:18.884Z,76.50
2022-08-07T21:31:31.316Z,77.20
2022-08-07T21:34:32.570Z,95.70
2022-08-07T21:37:11.413Z,78.60
2022-08-07T21:39:55.058Z,77.60
2022-08-07T21:42:42.275Z,78.20
2022-08-07T21:46:08.910Z,97.50
2022-08-07T21:49:04.768Z,80.60
2022-08-07T21:52:03.978Z,82.90
2022-08-07T21:54:34.118Z,83.20
2022-08-07T21:57:51.851Z,82.30
2022-08-07T22:00:25.176Z,84.60
2022-08-07T22:03:31.049Z,83.40
2022-08-07T22:06:06.005Z,84.10
2022-08-07T22:08:45.852Z,83.70
2022-08-07T22:11:19.610Z,85.20
2022-08-07T22:13:54.878Z,99.90
2022-08-07T22:16:47.538Z,84.90
2022-08-07T22:19:29.458Z,85.60
2022-08-07T22:22:21.457Z,86.50
2022-08-07T22:24:55.233Z,85.30
2022-08-07T22:28:20.323Z,85.40
2022-08-07T22:30:27.592Z,86.80
2022-08-07T22:33:09.326Z,85.70
2022-08-07T22:35:57.920Z,86.00
2022-08-07T22:38:34.515Z,87.90
2022-08-07T22:41:14.198Z,87.00
2022-08-07T22:43:56.181Z,86.60
2022-08-07T22:47:17.353Z,86.70
2022-08-07T22:50:29.174Z,88.40
2022-08-07T22:54:06.927Z,88.30
2022-08-07T22:56:38.039Z,87.90
2022-08-07T22:59:24.369Z,87.50
2022-08-07T23:02:29.639Z,88.30
2022-08-07T23:06:10.127Z,90.20
2022-08-07T23:08:24.101Z,89.80
2022-08-07T23:11:17.490Z,90.30
2022-08-07T23:14:10.827Z,99.90
2022-08-07T23:16:54.734Z,90.20
2022-08-07T23:20:52.482Z,90.20
2022-08-07T23:24:05.112Z,90.40
2022-08-07T23:26:24.999Z,90.00
2022-08-07T23:29:43.111Z,90.50
2022-08-07T23:34:22.103Z,90.50
2022-08-07T23:35:44.887Z,99.90
2022-08-07T23:38:36.565Z,90.80
2022-08-07T23:42:04.116Z,90.90
2022-08-07T23:45:15.143Z,91.00
2022-08-07T23:48:34.497Z,90.90
2022-08-07T23:53:05.707Z,91.00
2022-08-07T23:54:52.067Z,90.60
2022-08-07T23:57:41.633Z,91.40
